Tiempo atmosférico en la estación meteorológica de Málaga, Puerto, Málaga (20 m.)



Fecha
DESCASC
Temp. máxima en grados centígrados (hora)
DESCASC
Temp. mínima en grados centígrados (hora)
DESCASC
Temp. media en grados centígrados
DESCASC
Racha de viento máxima en m/sg (hora)
DESCASC
Velocidad máxima media en intervalos de 10 minutos(hora)
DESCASC
Precipitaciones diarias en mm
DESCASC
Precipitaciones de 00:00 a 06:00 en mm
DESCASC
Precipitaciones de 06:00 a 12:00 en mm
DESCASC
Precipitaciones de 12:00 a 18:00 en mm
DESCASC
Precipitaciones de 18:00 a 24:00 en mm
DESCASC
08-12-2019 22.4 (14:20) 11 (06:30) 16.7 10 (23:59) 5.56 (23:59) 0 0 0 0 0
07-12-2019 21 (12:10) 13 (23:59) 17 5.83 (13:30) 3.89 (13:30) 0 0 0 0 0
06-12-2019 19.7 (13:20) 12 (05:20) 15.9 6.11 (08:10) 3.06 (15:10) 0 0 0 0 0
05-12-2019 19 (11:20) 11.5 (00:00) 15.3 7.5 (13:40) 3.89 (18:20) 0 0 0 0 0
04-12-2019 19.2 (14:30) 12.8 (00:00) 16 8.06 (16:10) 4.17 (08:00) 0 0 0 0 0
03-12-2019 19 (14:30) 12.9 (00:00) 15.9 7.22 (01:00) 3.89 (06:10) 6.5 6.2 0.3 0 0
02-12-2019 16.9 (11:10) 12.8 (00:00) 14.8 11.11 (23:30) 4.72 (23:59) 0.7 0 0.1 0 0.6
01-12-2019 20.2 (13:30) 12.8 (00:00) 16.5 10 (13:50) 7.22 (13:50) 0.8 0 0 0 0.8
30-11-2019 19.7 (12:30) 13.4 (00:00) 16.6 6.94 (21:50) 3.33 (22:10) 0 0 0 0 0
29-11-2019 23.4 (13:40) 14.4 (00:00) 18.9 8.33 (02:00) 4.17 (04:10) 0 0 0 0 0
28-11-2019 22.1 (14:30) 15.4 (00:00) 18.8 9.44 (05:00) 5.28 (05:00) 0 0 0 0 0
27-11-2019 22.7 (15:00) 15.1 (00:00) 18.9 11.39 (12:20) 5 (11:00) 0 0 0 0 0
26-11-2019 -- (--) -- (--) -- -- (--) -- (--) -- -- -- 0 0
25-11-2019 -- (--) -- (--) -- -- (--) -- (--) -- 0 0 0 --
24-11-2019 18.4 (14:30) 12.2 (00:00) 15.3 12.5 (16:10) 6.11 (16:10) 0 0 0 0 0
23-11-2019 18.1 (13:50) 14.2 (00:00) 16.2 16.11 (06:30) 7.22 (00:40) 0 0 0 0 0
22-11-2019 17.8 (22:30) 13.4 (00:00) 15.6 16.94 (22:20) 7.5 (23:50) 24.8 1 11.6 5.1 7.1
21-11-2019 14.6 (22:30) 11.8 (00:00) 13.2 5 (12:50) 2.78 (18:00) 7.2 0.1 1.8 2.9 2.4
20-11-2019 16.9 (10:30) 10.5 (00:00) 13.7 4.72 (13:40) 2.78 (06:50) 0.9 0 0 0.9 0
19-11-2019 19.3 (13:00) 10.7 (00:00) 15 6.67 (14:30) 4.44 (14:10) 0 0 0 0 0
18-11-2019 17.1 (15:30) 12.8 (00:00) 15 15.56 (08:10) 6.11 (07:40) 0 0 0 0 0
17-11-2019 16.7 (14:20) 10.2 (00:00) 13.5 7.22 (03:20) 3.89 (00:50) 0 0 0 0 0
16-11-2019 16.4 (15:40) 9.2 (00:00) 12.8 11.39 (14:40) 5.83 (11:30) 0 0 0 0 0
15-11-2019 14.7 (15:00) 10.5 (00:00) 12.6 14.44 (08:20) 6.67 (12:00) 0 0 0 0 0
14-11-2019 18.5 (00:00) 13.2 (00:00) 15.8 16.67 (15:00) 8.89 (15:00) 0.4 0 0 0.4 0
13-11-2019 21.9 (15:30) 16.1 (00:00) 19 13.33 (15:50) 6.39 (15:50) 0 0 0 0 0
12-11-2019 19.8 (14:20) 15.5 (00:00) 17.6 13.06 (14:40) 6.94 (18:10) 0 0 0 0 0
11-11-2019 17.5 (13:00) 13.9 (07:50) 15.7 13.06 (16:30) 7.78 (16:30) 0 0 0 0 0
10-11-2019 18.9 (15:10) 14.7 (00:00) 16.8 14.44 (17:50) 6.94 (15:30) 0 0 0 0 0

Gráficas

Temp. máximas Temp. mínimas Temp. medias Precipitaciones Rachas de viento máximas Velocidades máximas media en intervalos de 10 minutos

Datos horarios

Fecha y hora oficial Temperatura (ºC) Velocidad del viento (km/h) Dirección del viento Racha (km/h) Dirección de racha Precipitación (mm) Presión (hPa) Tendencia (hPa) Humedad (%)
2019-12-09 23:00:00 16 10 Oeste 27 Oeste 0 1024.5 0.3 62
2019-12-09 22:00:00 16.2 14 Oeste 28 Oeste 0 1024.8 1.1 62
2019-12-09 21:00:00 16 12 Oeste 27 Oeste 0 1024.6 1.3 62
2019-12-09 20:00:00 16.4 13 Oeste 30 Oeste 0 1024.2 1.3 60
2019-12-09 19:00:00 17.1 12 Oeste 30 Oeste 0 1023.7 0.8 57
2019-12-09 18:00:00 18.5 14 Oeste 43 Oeste 0 1023.3 0.1 52
2019-12-09 17:00:00 20.2 13 Oeste 26 Sudoeste 0 1022.9 -0.6 48
2019-12-09 16:00:00 20.3 14 Oeste 28 Oeste 0 1022.9 -1.4 47
2019-12-09 15:00:00 20.7 10 Oeste 28 Oeste 0 1023.2 -1.9 47
2019-12-09 14:00:00 20.8 12 Oeste 31 Oeste 0 1023.5 -1.6 48
2019-12-09 13:00:00 19.2 16 Oeste 33 Oeste 0 1024.3 -0.5 53
2019-12-09 12:00:00 19.7 9 Oeste 38 Oeste 0 1025.1 0.8 52
2019-12-09 11:00:00 18.6 16 Oeste 36 Oeste 0 1025.1 1.2 54
2019-12-09 10:00:00 17.3 18 Oeste 35 Oeste 0 1024.8 1.2 57
2019-12-09 09:00:00 15.7 14 Oeste 30 Sudoeste 0 1024.3 1.1 67
2019-12-09 08:00:00 15.1 13 Sudoeste 32 Oeste 0 1023.9 1.3 68
2019-12-09 07:00:00 15.5 10 Oeste 32 Noroeste 0 1023.6 0.3 66
2019-12-09 06:00:00 15.1 18 Oeste 35 Oeste 0 1023.2 -0.1 67
2019-12-09 05:00:00 16.2 16 Oeste 37 Oeste 0 1022.6 -1 61
2019-12-09 04:00:00 16.4 13 Noroeste 30 Oeste 0 1023.3 -0.1 60
2019-12-09 03:00:00 16.5 13 Noroeste 29 Oeste 0 1023.3 -0.2 54
2019-12-09 02:00:00 16.6 14 Noroeste 42 Noroeste 0 1023.6 0.4 51
2019-12-09 01:00:00 17.3 22 Noroeste 38 Noroeste 0 1023.4 0.2 48
2019-12-09 00:00:00 17.8 20 Noroeste 36 Noroeste 0 1023.5 0.2 46
2019-12-08 23:00:00 16.7 12 Oeste 26 Noroeste 0 1023.2 0.1 49
2019-12-08 22:00:00 17.6 12 Noroeste 26 Noroeste 0 1023.2 0.5 44
2019-12-08 21:00:00 17.6 9 Oeste 28 Oeste 0 1023.3 1.3 44
2019-12-08 20:00:00 18.1 14 Oeste 24 Oeste 0 1023.1 1.6 42
2019-12-08 19:00:00 18.8 13 Oeste 23 Oeste 0 1022.7 1.5 42
2019-12-08 18:00:00 19.7 12 Oeste 21 Oeste 0 1022 0.8 36
2019-12-08 17:00:00 20.7 11 Noroeste 29 Oeste 0 1021.5 -0.2 35
2019-12-08 16:00:00 22 8 Oeste 28 Oeste 0 1021.2 -1.6 32
2019-12-08 15:00:00 21.5 13 Oeste 26 Oeste 0 1021.2 -2.6 33
2019-12-08 14:00:00 21.3 11 Oeste 35 Sudoeste 0 1021.7 -2.6 37
2019-12-08 13:00:00 20.2 11 Sudoeste 23 Oeste 0 1022.8 -1 44
2019-12-08 12:00:00 18.3 11 Oeste 21 Sudoeste 0 1023.8 0.5 46
2019-12-08 11:00:00 18.2 0 Calma 11 Nordeste 0 1024.3 0.9 51
2019-12-08 10:00:00 16.4 0 Calma 19 Oeste 0 1023.8 0.9 57
2019-12-08 09:00:00 12.8 5 Noroeste 16 Oeste 0 1023.3 0.7 66
2019-12-08 08:00:00 11.8 8 Oeste 17 Oeste 0 1023.4 0.6 70
2019-12-08 07:00:00 11.4 7 Noroeste 12 Noroeste 0 1022.9 -0.3 73
2019-12-08 06:00:00 11.4 3 Noroeste 11 Noroeste 0 1022.6 -0.8 73
2019-12-08 05:00:00 11.4 7 Noroeste 17 Noroeste 0 1022.8 -0.5 73
2019-12-08 04:00:00 11.6 6 Noroeste 13 Noroeste 0 1023.2 -0.3 74
2019-12-08 03:00:00 12 7 Noroeste 13 Noroeste 0 1023.4 -0.2 73
2019-12-08 02:00:00 12.4 4 Norte 15 Noroeste 0 1023.3 -0.1 72
2019-12-08 01:00:00 13 9 Norte 15 Norte 0 1023.5 0.4 71
2019-12-08 00:00:00 13.1 10 Noroeste 16 Noroeste 0 1023.6 1 71
2019-12-07 23:00:00 13.2 9 Norte 16 Norte 0 1023.4 1.3 70
2019-12-07 22:00:00 13.8 4 Norte 12 Norte 0 1023.1 1.5 68
2019-12-07 21:00:00 14.1 3 Noroeste 11 Norte 0 1022.6 1.5 68
2019-12-07 20:00:00 14.1 6 Norte 9 Norte 0 1022.1 1.7 78
2019-12-07 19:00:00 15.4 4 Sudeste 6 Sudeste 0 1021.6 1.6 80
2019-12-07 18:00:00 15.6 0 Calma 14 Este 0 1021.1 1.2 77
2019-12-07 17:00:00 17.1 3 Sudeste 14 Sudeste 0 1020.4 0.2 68
2019-12-07 16:00:00 17.7 4 Este 16 Sur 0 1020 -0.8 65
2019-12-07 15:00:00 18 4 Sudeste 15 Sudeste 0 1019.9 -1.2 64
2019-12-07 14:00:00 18.4 9 Sur 21 Sur 0 1020.2 -0.9 60
2019-12-07 13:00:00 19.5 9 Sur 18 Sudoeste 0 1020.8 0.1 43
2019-12-07 12:00:00 20.4 4 Sudoeste 13 Sudoeste 0 1021.1 1 44
2019-12-07 11:00:00 18.7 0 Calma 13 Oeste 0 1021.1 1.6 57
2019-12-07 10:00:00 14.9 7 Oeste 12 Oeste 0 1020.7 1.7 66
2019-12-07 09:00:00 14.7 5 Noroeste 17 Oeste 0 1020.1 1.4 68
2019-12-07 08:00:00 14.4 9 Oeste 16 Oeste 0 1019.5 0.9 70
2019-12-07 07:00:00 14.7 9 Oeste 14 Oeste 0 1019 0.1 69
2019-12-07 06:00:00 15.2 8 Noroeste 16 Noroeste 0 1018.7 -0.3 67
2019-12-07 05:00:00 15.3 9 Noroeste 14 Noroeste 0 1018.6 -0.4 67
2019-12-07 04:00:00 15.1 5 Noroeste 15 Noroeste 0 1018.9 -0.4 68
2019-12-07 03:00:00 14.7 9 Noroeste 16 Noroeste 0 1019 -0.3 69
2019-12-07 02:00:00 14.6 5 Norte 13 Noroeste 0 1019 0.1 68
2019-12-07 01:00:00 14.6 7 Noroeste 16 Norte 0 1019.3 0.7 69
2019-12-07 00:00:00 14.4 7 Norte 16 Norte 0 1019.3 0.7 68
2019-12-06 23:00:00 14.3 6 Norte 14 Noroeste 0 1018.9 0.6 69
2019-12-06 22:00:00 14.3 8 Norte 17 Noroeste 0 1018.6 0.9 69
2019-12-06 21:00:00 14.6 9 Noroeste 15 Norte 0 1018.6 1.5 70
2019-12-06 20:00:00 15 6 Noroeste 13 Noroeste 0 1018.3 1.8 73
2019-12-06 19:00:00 15.9 7 Sudeste 13 Sudeste 0 1017.7 1.5 76
2019-12-06 18:00:00 16.3 5 Sudeste 12 Sur 0 1017.1 1.3 69
2019-12-06 17:00:00 17.6 4 Sudeste 10 Este 0 1016.5 0.5 55
2019-12-06 16:00:00 17.5 4 Sur 16 Sur 0 1016.2 -0.7 50
2019-12-06 15:00:00 18.6 10 Sur 15 Sur 0 1015.8 -1.8 44
2019-12-06 14:00:00 18.7 10 Sur 16 Sur 0 1016 -1.8 46
2019-12-06 13:00:00 19.2 10 Sudoeste 18 Sudoeste 0 1016.9 -0.5 45
2019-12-06 12:00:00 18.9 5 Oeste 17 Oeste 0 1017.6 1.1 47
2019-12-06 11:00:00 16.1 8 Oeste 16 Oeste 0 1017.8 1.8 56
2019-12-06 10:00:00 13.7 7 Oeste 12 Oeste 0 1017.4 1.9 64
2019-12-06 09:00:00 13.1 8 Noroeste 22 Noroeste 0 1016.5 1.4 61
2019-12-06 08:00:00 12 8 Norte 19 Norte 0 1016 1.4 63
2019-12-06 07:00:00 12 9 Noroeste 15 Noroeste 0 1015.5 1 65
2019-12-06 06:00:00 12.3 9 Noroeste 15 Noroeste 0 1015.1 0.7 66
2019-12-06 05:00:00 12.6 6 Noroeste 15 Noroeste 0 1014.6 0.7 70
2019-12-06 04:00:00 12.4 9 Noroeste 16 Noroeste 0 1014.5 0.3 68
2019-12-06 03:00:00 12.6 7 Noroeste 13 Noroeste 0 1014.4 -0.1 69
2019-12-06 02:00:00 13.2 7 Norte 15 Norte 0 1013.9 -0.5 71
2019-12-06 01:00:00 13.8 6 Norte 14 Noroeste 0 1014.2 0 71
2019-12-06 00:00:00 14.2 8 Noroeste 14 Noroeste 0 1014.5 0.4 71
2019-12-05 23:00:00 14.3 10 Noroeste 16 Noroeste 0 1014.4 0.5 74
2019-12-05 22:00:00 15 3 Norte 10 Norte 0 1014.2 1 73
2019-12-05 21:00:00 15.7 3 Este 12 Este 0 1014.1 1.2 72
2019-12-05 20:00:00 15.6 6 Este 15 Nordeste 0 1013.9 1.6 73
2019-12-05 19:00:00 15.3 3 Sudeste 22 Sudeste 0 1013.2 1.3 79
2019-12-05 18:00:00 15.4 3 Este 23 Este 0 1012.9 1 76
2019-12-05 17:00:00 15.4 9 Este 18 Sudeste 0 1012.3 0.3 76
2019-12-05 16:00:00 15.5 13 Sudeste 21 Sudeste 0 1011.9 -0.3 75
2019-12-05 15:00:00 15.6 5 Este 20 Este 0 1011.9 -0.7 68
2019-12-05 14:00:00 15.9 5 Sudeste 27 Este 0 1012 -0.4 69
2019-12-05 13:00:00 15.9 8 Este 21 Este 0 1012.2 0.7 61
2019-12-05 12:00:00 16.8 10 Sudeste 14 Sudeste 0 1012.6 1.7 50
2019-12-05 11:00:00 16.7 4 Oeste 13 Sudoeste 0 1012.4 2 48
2019-12-05 10:00:00 15.6 3 Sudoeste 13 Noroeste 0 1011.5 1.6 49
2019-12-05 09:00:00 12.4 6 Norte 16 Noroeste 0 1010.9 1.8 57
2019-12-05 08:00:00 11.8 8 Norte 15 Norte 0 1010.4 1.6 60
2019-12-05 07:00:00 12 7 Oeste 15 Noroeste 0 1009.9 1.1 61
2019-12-05 06:00:00 11.9 7 Noroeste 20 Oeste 0 1009.1 0.7 61
2019-12-05 05:00:00 12 8 Oeste 23 Oeste 0 1008.8 0.7 61
2019-12-05 04:00:00 12.4 7 Oeste 18 Oeste 0 1008.8 0.5 60
2019-12-05 03:00:00 12.7 8 Noroeste 19 Noroeste 0 1008.4 0.2 60
2019-12-05 02:00:00 12.5 9 Oeste 18 Oeste 0 1008.1 0.1 59
2019-12-05 01:00:00 12.8 8 Oeste 17 Sudoeste 0 1008.3 0.9 59
2019-12-05 00:00:00 13.1 8 Oeste 21 Noroeste 0 1008.2 1.1 58
2019-12-04 23:00:00 13.5 9 Oeste 21 Oeste 0 1008 1.4 57
2019-12-04 22:00:00 14.3 9 Oeste 20 Oeste 0 1007.4 1.4 52
2019-12-04 21:00:00 14.8 9 Oeste 22 Noroeste 0 1007.1 1.5 50
2019-12-04 20:00:00 15.4 12 Oeste 21 Oeste 0 1006.6 1.8 48
2019-12-04 19:00:00 16 6 Oeste 14 Oeste 0 1006 1.6 45
2019-12-04 18:00:00 16.8 5 Noroeste 20 Noroeste 0 1005.6 1.1 41
2019-12-04 17:00:00 17.8 10 Noroeste 29 Noroeste 0 1004.8 0 38
2019-12-04 16:00:00 18.3 12 Noroeste 28 Noroeste 0 1004.4 -1.2 37
2019-12-04 15:00:00 18.2 10 Noroeste 26 Noroeste 0 1004.5 -1.9 40
2019-12-04 14:00:00 18.1 11 Noroeste 27 Noroeste 0 1004.8 -2.1 43
2019-12-04 13:00:00 17.8 11 Noroeste 24 Oeste 0 1005.6 -1.2 44
2019-12-04 12:00:00 18.2 9 Noroeste 26 Oeste 0 1006.4 0.2 44
2019-12-04 11:00:00 17.6 9 Noroeste 21 Noroeste 0 1006.9 0.8 46
2019-12-04 10:00:00 17 4 Norte 26 Noroeste 0 1006.8 1.3 48
2019-12-04 09:00:00 15.3 9 Noroeste 21 Noroeste 0 1006.2 0.5 55
2019-12-04 08:00:00 12.9 15 Sudoeste 21 Sudoeste 0 1006.1 0.1 66
2019-12-04 07:00:00 13.7 6 Noroeste 19 Oeste 0 1005.5 -1.2 64
2019-12-04 06:00:00 13.3 6 Oeste 22 Sudoeste 0 1005.7 -1.6 63
2019-12-04 05:00:00 13.7 10 Sudoeste 21 Oeste 0 1006 -1.7 61
2019-12-04 04:00:00 14.1 8 Noroeste 15 Oeste 0 1006.7 -1.1 60
2019-12-04 03:00:00 15.1 6 Noroeste 17 Noroeste 0 1007.3 -0.8 52
2019-12-04 02:00:00 15.2 7 Noroeste 15 Oeste 0 1007.7 -0.2 50
2019-12-04 01:00:00 14.9 4 Noroeste 13 Noroeste 0 1007.8 0.2 53
2019-12-04 00:00:00 14.5 5 Noroeste 10 Noroeste 0 1008.1 0.5 54
2019-12-03 23:00:00 14.7 4 Noroeste 12 Noroeste 0 1007.9 0.9 55
2019-12-03 22:00:00 14.4 6 Noroeste 12 Noroeste 0 1007.6 1 56
2019-12-03 21:00:00 15 4 Noroeste 10 Noroeste 0 1007.6 1.5 56
2019-12-03 20:00:00 16.2 6 Noroeste 11 Oeste 0 1007 1.4 51
2019-12-03 19:00:00 16.8 6 Noroeste 14 Oeste 0 1006.6 1 48
2019-12-03 18:00:00 17.7 6 Oeste 23 Oeste 0 1006.1 0.6 47
2019-12-03 17:00:00 18.1 8 Oeste 25 Sudoeste 0 1005.6 -0.6 45
2019-12-03 16:00:00 18.7 8 Oeste 24 Oeste 0 1005.6 -1.3 43
2019-12-03 15:00:00 18.4 12 Oeste 22 Oeste 0 1005.5 -2.6 44
2019-12-03 14:00:00 17.3 11 Oeste 19 Oeste 0 1006.2 -1.8 50
2019-12-03 13:00:00 16.8 6 Noroeste 14 Oeste 0 1006.9 -0.5 57
2019-12-03 12:00:00 14.6 5 Noroeste 14 Este 0.2 1008.1 1.2 65
2019-12-03 11:00:00 14.8 6 Oeste 21 Noroeste 0 1008 1.4 64
2019-12-03 10:00:00 13.7 12 Oeste 23 Oeste 0.1 1007.4 1 68
2019-12-03 09:00:00 13.2 12 Oeste 22 Oeste 0 1006.9 0.5 73
2019-12-03 08:00:00 13 11 Oeste 23 Oeste 0 1006.6 -0.4 79
2019-12-03 07:00:00 13.2 7 Oeste 25 Noroeste 0 1006.4 -1.9 80
2019-12-03 06:00:00 13.1 10 Noroeste 22 Noroeste 0 1006.4 -2 84
2019-12-03 05:00:00 13.1 8 Noroeste 18 Noroeste 0.2 1007 -1.9 87
2019-12-03 04:00:00 13.1 3 Noroeste 6 Noroeste 0.5 1008.3 -1.2 87
2019-12-03 03:00:00 13 5 Norte 11 Noroeste 0 1008.4 -1.3 88
2019-12-03 02:00:00 13.4 5 Norte 11 Nordeste 1.2 1008.9 -0.5 88
2019-12-03 01:00:00 13.3 12 Este 26 Nordeste 4.3 1009.5 0.1 88
2019-12-03 00:00:00 14.1 17 Sudeste 40 Nordeste 0.6 1009.7 0.5 83
2019-12-02 23:00:00 15.2 12 Este 21 Nordeste 0 1009.4 0.6 70
2019-12-02 22:00:00 15.3 9 Este 21 Nordeste 0 1009.4 1.1 75
2019-12-02 21:00:00 15.1 7 Este 25 Sudeste 0 1009.2 1.4 76
2019-12-02 20:00:00 14.9 9 Este 29 Sudeste 0 1008.8 1.7 76
2019-12-02 19:00:00 14.8 10 Este 34 Sudeste 0 1008.3 1.5 78
2019-12-02 18:00:00 14.9 11 Este 32 Sudeste 0 1007.8 1.1 79
2019-12-02 17:00:00 15.5 7 Este 26 Nordeste 0 1007.1 0.2 72
2019-12-02 16:00:00 15.5 11 Este 28 Este 0 1006.8 -0.5 65
2019-12-02 15:00:00 15.3 9 Este 28 Nordeste 0 1006.7 -1.1 75
2019-12-02 14:00:00 15.7 9 Este 33 Este 0 1006.9 -1.1 71
2019-12-02 13:00:00 16 13 Este 32 Sudeste 0 1007.3 -0.1 65
2019-12-02 12:00:00 15.3 10 Este 24 Sudeste 0 1007.8 0.8 64
2019-12-02 11:00:00 16.7 9 Este 26 Nordeste 0 1008 1.6 58
2019-12-02 10:00:00 14.5 15 Este 26 Este 0 1007.4 1.2 64
2019-12-02 09:00:00 13.8 12 Nordeste 24 Nordeste 0 1007 0.9 72
2019-12-02 08:00:00 13.5 12 Este 22 Nordeste 0.1 1006.4 0.1 78
2019-12-02 07:00:00 13.9 7 Sudeste 12 Sudeste 0 1006.2 -0.3 80
2019-12-02 06:00:00 13.8 3 Este 11 Este 0 1006.1 -0.5 81
2019-12-02 05:00:00 14 4 Este 19 Sudeste 0 1006.3 -0.7 81
2019-12-02 04:00:00 13.9 9 Este 21 Este 0 1006.5 -0.9 83
2019-12-02 03:00:00 14 9 Este 19 Este 0 1006.6 -1 83
2019-12-02 02:00:00 13.7 6 Este 13 Nordeste 0 1007 -1 81
2019-12-02 01:00:00 13 3 Noroeste 13 Norte 0 1007.4 -0.5 77
2019-12-02 00:00:00 12.9 6 Norte 11 Norte 0 1007.6 -0.5 80
2019-12-01 23:00:00 13.4 3 Norte 8 Norte 0 1008 -0.2 83
2019-12-01 22:00:00 14.1 4 Nordeste 9 Nordeste 0 1007.9 -0.1 82
2019-12-01 21:00:00 14.6 4 Sudeste 9 Nordeste 0 1008.1 0.2 80
2019-12-01 20:00:00 14.9 4 Norte 12 Nordeste 0.8 1008.2 0.1 76
2019-12-01 19:00:00 16.1 5 Nordeste 13 Nordeste 0 1008 -0.5 64
2019-12-01 18:00:00 16.4 10 Nordeste 28 Sur 0 1007.9 -1.1 61
2019-12-01 17:00:00 16.4 15 Sur 27 Sudoeste 0 1008.1 -1.7 61
2019-12-01 16:00:00 16.7 13 Sur 28 Sur 0 1008.5 -2.1 63
2019-12-01 15:00:00 16.7 18 Sur 31 Sudoeste 0 1009 -2.7 59
2019-12-01 14:00:00 16.3 24 Sudoeste 36 Sudoeste 0 1009.8 -2.5 63
2019-12-01 13:00:00 18.8 13 Oeste 28 Noroeste 0 1010.6 -1.4 35
2019-12-01 12:00:00 19.6 8 Noroeste 31 Oeste 0 1011.7 -0.3 37
2019-12-01 11:00:00 18.6 9 Noroeste 29 Noroeste 0 1012.3 0.3 40
2019-12-01 10:00:00 17.5 11 Noroeste 28 Noroeste 0 1012 0.1 44
2019-12-01 09:00:00 15.6 8 Oeste 25 Oeste 0 1012 -0.2 52
2019-12-01 08:00:00 15.7 13 Oeste 25 Noroeste 0 1012 -0.9 57
2019-12-01 07:00:00 15.9 9 Noroeste 24 Noroeste 0 1011.9 -1.3 58
2019-12-01 06:00:00 16.1 5 Oeste 24 Noroeste 0 1012.2 -1.1 59
2019-12-01 05:00:00 15.7 12 Sudoeste 25 Noroeste 0 1012.9 -0.9 65
2019-12-01 04:00:00 15.9 7 Oeste 17 Oeste 0 1013.2 -1 62
2019-12-01 03:00:00 15.5 10 Sudoeste 20 Noroeste 0 1013.3 -1.8 62
2019-12-01 02:00:00 17.4 10 Noroeste 23 Noroeste 0 1013.8 -1.6 56
2019-12-01 01:00:00 16.1 6 Oeste 18 Sudoeste 0 1014.2 -1.4 60
2019-12-01 00:00:00 16.4 7 Oeste 22 Oeste 0 1015.1 -0.9 59
2019-11-30 23:00:00 16.8 8 Oeste 24 Noroeste 0 1015.4 -0.7 56
2019-11-30 22:00:00 17.9 11 Noroeste 25 Noroeste 0 1015.6 -0.4 53
2019-11-30 21:00:00 17.3 9 Oeste 17 Noroeste 0 1016 0 60
2019-11-30 20:00:00 16 4 Noroeste 9 Oeste 0 1016.1 0.2 65
2019-11-30 19:00:00 15.1 0 Calma 4 Sur 0 1016 -0.4 77
2019-11-30 18:00:00 15.7 2 Sur 6 Este 0 1016 -0.9 68
2019-11-30 17:00:00 16.6 4 Sudeste 9 Sudeste 0 1015.9 -2 61
2019-11-30 16:00:00 17.9 2 Sudeste 8 Este 0 1016.4 -2.4 56
2019-11-30 15:00:00 17.7 5 Sudeste 10 Sur 0 1016.9 -2.9 54
2019-11-30 14:00:00 17.9 6 Sudeste 9 Sur 0 1017.9 -1.9 49
2019-11-30 13:00:00 18.6 5 Sudeste 10 Este 0 1018.8 -0.7 44
2019-11-30 12:00:00 17.6 7 Este 12 Este 0 1019.8 0.7 46
2019-11-30 11:00:00 18.5 5 Sur 6 Sur 0 1019.8 0.9 43
2019-11-30 10:00:00 15.6 5 Noroeste 8 Noroeste 0 1019.5 1 47
2019-11-30 09:00:00 14.6 4 Noroeste 12 Norte 0 1019.1 1 51
2019-11-30 08:00:00 13.6 5 Noroeste 13 Noroeste 0 1018.9 0.6 56
2019-11-30 07:00:00 13.6 9 Noroeste 14 Noroeste 0 1018.5 0 52
2019-11-30 06:00:00 14 4 Noroeste 9 Noroeste 0 1018.1 -0.4 54
2019-11-30 05:00:00 14.2 5 Noroeste 13 Noroeste 0 1018.3 -0.4 53
2019-11-30 04:00:00 14.2 5 Noroeste 14 Noroeste 0 1018.5 -0.3 53
2019-11-30 03:00:00 14.2 6 Norte 13 Norte 0 1018.5 -0.4 54
2019-11-30 02:00:00 14.3 5 Noroeste 13 Noroeste 0 1018.7 -0.1 56
2019-11-30 01:00:00 14.5 6 Norte 14 Noroeste 0 1018.8 0.2 59
2019-11-30 00:00:00 14.7 7 Noroeste 11 Norte 0 1018.9 0.6 62
2019-11-29 23:00:00 15.3 3 Noroeste 7 Noroeste 0 1018.8 0.7 66
2019-11-29 22:00:00 15.4 0 Calma 12 Este 0 1018.6 0.7 68
2019-11-29 21:00:00 15.9 3 Noroeste 11 Noroeste 0 1018.3 0.7 71
2019-11-29 20:00:00 14.9 0 Calma 4 Nordeste 0 1018.1 0.9 80
2019-11-29 19:00:00 14.7 2 Este 11 Este 0 1017.9 1 84
2019-11-29 18:00:00 15.3 6 Este 11 Este 0 1017.6 0.7 81
2019-11-29 17:00:00 15.8 7 Este 17 Este 0 1017.2 -0.1 76
2019-11-29 16:00:00 15.9 9 Este 21 Este 0 1016.9 -0.6 73
2019-11-29 15:00:00 18.9 3 Sudeste 18 Nordeste 0 1016.9 -1.3 58
2019-11-29 14:00:00 18.4 5 Este 27 Este 0 1017.3 -0.9 59
2019-11-29 13:00:00 22 10 Oeste 27 Sudoeste 0 1017.5 -0.2 40
2019-11-29 12:00:00 20.9 10 Sudoeste 27 Sudoeste 0 1018.2 0.9 44
2019-11-29 11:00:00 19.7 9 Oeste 23 Oeste 0 1018.2 1.2 47
2019-11-29 10:00:00 17.2 13 Oeste 23 Oeste 0 1017.7 1.1 51
2019-11-29 09:00:00 16.4 7 Oeste 29 Oeste 0 1017.3 0.9 53
2019-11-29 08:00:00 15.2 14 Oeste 26 Oeste 0 1017 0.9 55
2019-11-29 07:00:00 15.4 10 Noroeste 21 Noroeste 0 1016.6 0.4 56
2019-11-29 06:00:00 15.4 9 Noroeste 23 Oeste 0 1016.4 0.3 56
2019-11-29 05:00:00 15.2 9 Oeste 27 Oeste 0 1016.1 0.3 57
2019-11-29 04:00:00 15.5 13 Oeste 29 Oeste 0 1016.2 0.1 56
2019-11-29 03:00:00 15.8 12 Oeste 27 Oeste 0 1016.1 -0.1 56
2019-11-29 02:00:00 15.8 14 Oeste 30 Oeste 0 1015.8 -0.4 57
2019-11-29 01:00:00 16 11 Oeste 30 Oeste 0 1016.1 -0.1 56
2019-11-29 00:00:00 16.1 10 Oeste 25 Oeste 0 1016.2 0.3 56
2019-11-28 23:00:00 16.9 10 Oeste 21 Oeste 0 1016.2 0.6 53
2019-11-28 22:00:00 17.4 8 Oeste 21 Oeste 0 1016.2 1.3 49
2019-11-28 21:00:00 17.9 9 Noroeste 24 Noroeste 0 1015.9 1.4 49
2019-11-28 20:00:00 18 13 Noroeste 30 Noroeste 0 1015.6 1.2 49
2019-11-28 19:00:00 18.7 11 Noroeste 25 Noroeste 0 1014.9 0.7 48
2019-11-28 18:00:00 20 9 Noroeste 19 Noroeste 0 1014.5 0.3 46
2019-11-28 17:00:00 18 2 Sudeste 18 Este 0 1014.4 -0.3 52
2019-11-28 16:00:00 17.8 14 Este 21 Este 0 1014.2 -1.2 51
2019-11-28 15:00:00 20.7 12 Sur 27 Sur 0 1014.2 -2 45
2019-11-28 14:00:00 21.6 13 Sudoeste 28 Sudoeste 0 1014.7 -1.4 40
2019-11-28 13:00:00 20.8 15 Sudoeste 29 Oeste 0 1015.4 -0.5 41
2019-11-28 12:00:00 20.9 10 Oeste 27 Oeste 0 1016.2 1 41
2019-11-28 11:00:00 19.7 10 Oeste 27 Oeste 0 1016.1 1.4 44
2019-11-28 10:00:00 17.4 14 Oeste 29 Oeste 0 1015.9 1.3 56
2019-11-28 09:00:00 15.8 13 Oeste 30 Oeste 0 1015.2 1.1 60
2019-11-28 08:00:00 15.7 8 Oeste 27 Noroeste 0 1014.7 0.9 57
2019-11-28 07:00:00 15.6 9 Oeste 27 Sudoeste 0 1014.6 0.5 61
2019-11-28 06:00:00 15.5 12 Oeste 32 Oeste 0 1014.1 0 62
2019-11-28 05:00:00 15.8 19 Noroeste 34 Oeste 0 1013.8 -0.2 64
2019-11-28 04:00:00 16 12 Oeste 26 Oeste 0 1014.1 -0.5 62
2019-11-28 03:00:00 16.3 10 Oeste 25 Sudoeste 0 1014.1 -0.3 61
2019-11-28 02:00:00 16.9 10 Oeste 29 Oeste 0 1014 -0.3 60
2019-11-28 01:00:00 17.2 13 Oeste 28 Oeste 0 1014.6 0.6 58
2019-11-28 00:00:00 17.8 10 Noroeste 28 Noroeste 0 1014.4 1 57
2019-11-27 23:00:00 18.5 10 Noroeste 27 Noroeste 0 1014.3 1.2 52
2019-11-27 22:00:00 18.6 12 Noroeste 26 Noroeste 0 1014 1.8 52
2019-11-27 21:00:00 18 6 Oeste 21 Oeste 0 1013.4 1.7 52
2019-11-27 20:00:00 18.8 9 Noroeste 22 Noroeste 0 1013.1 1.8 49
2019-11-27 19:00:00 19 13 Noroeste 36 Noroeste 0 1012.2 1.3 47
2019-11-27 18:00:00 20 17 Noroeste 35 Norte 0 1011.7 0.5 44
2019-11-27 17:00:00 20.7 14 Noroeste 31 Noroeste 0 1011.3 -0.6 41
2019-11-27 16:00:00 21.5 14 Noroeste 29 Norte 0 1010.9 -1.5 39
2019-11-27 15:00:00 22.4 11 Noroeste 32 Noroeste 0 1011.2 -1.8 39
2019-11-27 14:00:00 21.8 11 Noroeste 37 Oeste 0 1011.9 -1.2 40
2019-11-27 06:00:00 16.1 7 Oeste 13 Sudoeste 0 1011 -0.2 68
2019-11-27 05:00:00 16.9 3 Oeste 10 Sudoeste 0 1010.8 -0.6 61
2019-11-27 04:00:00 16.7 3 Oeste 16 Oeste 0 1011.1 -0.7 61
2019-11-27 03:00:00 17 9 Oeste 14 Oeste 0 1011.2 -0.6 60
2019-11-27 02:00:00 17.1 6 Oeste 14 Sudoeste 0 1011.4 -0.4 60
2019-11-27 01:00:00 17.2 7 Oeste 10 Oeste 0 1011.8 -0.1 59
2019-11-27 00:00:00 17.9 0 Calma 11 Oeste 0 1011.8 0.1 55
2019-11-26 23:00:00 18.6 5 Oeste 12 Oeste 0 1011.8 0.2 53
2019-11-26 22:00:00 19 7 Oeste 26 Noroeste 0 1011.9 1.1 51
2019-11-26 21:00:00 19.7 12 Noroeste 25 Noroeste 0 1011.7 1 49
2019-11-26 20:00:00 20.3 8 Oeste 29 Noroeste 0 1011.6 1.2 48
2019-11-26 19:00:00 20.9 12 Noroeste 29 Noroeste 0 1010.8 0.4 50
2019-11-26 18:00:00 21.7 13 Noroeste 30 Noroeste 0 1010.7 0.1 49
2019-11-26 17:00:00 22.6 9 Noroeste 20 Noroeste 0 1010.4 -1 47
2019-11-26 16:00:00 20.9 9 Sudoeste 27 Noroeste 0 1010.4 -2 53
2019-11-26 15:00:00 23.4 11 Noroeste 26 Noroeste 0 1010.6 -2.6 43
2019-11-26 14:00:00 22.7 11 Noroeste 27 Noroeste 0 1011.4 -2.2 46
2019-11-26 13:00:00 22.9 12 Oeste 30 Oeste 0 1012.4 -1 46
2019-11-26 12:00:00 21.6 14 Noroeste 25 Oeste 0 1013.2 -0.4 49
2019-11-26 11:00:00 20.6 12 Oeste 29 Oeste 0 1013.6 0 52
2019-11-26 10:00:00 19.3 13 Oeste 25 Oeste 0 1013.4 -- 57
2019-11-26 09:00:00 18.1 4 Oeste 21 Oeste 0 1013.6 -- 61
2019-11-26 08:00:00 17.3 6 Oeste -- -- -- 1013.6 -- 60
2019-11-26 07:00:00 -- -- -- -- -- -- -- -- --
2019-11-26 06:00:00 -- -- -- -- -- -- -- -- --
2019-11-26 05:00:00 -- -- -- -- -- -- -- -- --
2019-11-26 04:00:00 -- -- -- -- -- -- -- -- --
2019-11-26 03:00:00 -- -- -- -- -- -- -- -- --
2019-11-26 02:00:00 -- -- -- -- -- -- -- -- --
2019-11-26 01:00:00 -- -- -- -- -- -- -- -- --
2019-11-26 00:00:00 -- -- -- -- -- -- -- -- --
2019-11-25 23:00:00 -- -- -- -- -- -- -- -- --
2019-11-25 22:00:00 -- -- -- -- -- -- -- -- --
2019-11-25 21:00:00 -- -- -- -- -- -- -- -- --
2019-11-25 20:00:00 -- -- -- -- -- -- -- -- --
2019-11-25 19:00:00 -- -- -- -- -- -- -- -- --
2019-11-25 18:00:00 20.3 11 Noroeste 23 Norte 0 1014.1 0 55
2019-11-25 17:00:00 20.9 9 Noroeste 20 Noroeste 0 1014.1 -0.3 53
2019-11-25 16:00:00 21.3 6 Noroeste 22 Noroeste 0 1014 -1.2 51
2019-11-25 15:00:00 21.2 12 Noroeste 25 Sudoeste 0 1014.1 -1.9 49
2019-11-25 14:00:00 20.3 6 Sur 25 Oeste 0 1014.4 -1.8 47
2019-11-25 13:00:00 21.8 4 Sudoeste 18 Sudoeste 0 1015.2 -0.7 48
2019-11-25 12:00:00 18.2 8 Sudoeste 30 Noroeste 0 1016 0.2 52
2019-11-25 11:00:00 19.5 14 Noroeste 25 Noroeste 0 1016.2 0.9 52
2019-11-25 10:00:00 18.4 8 Noroeste 23 Noroeste 0 1015.9 0.5 56
2019-11-25 09:00:00 16.5 12 Noroeste 25 Oeste 0 1015.8 0.6 60
2019-11-25 08:00:00 16 14 Noroeste 26 Noroeste 0 1015.3 0.6 59
2019-11-25 07:00:00 15.7 13 Noroeste 25 Oeste 0 1015.4 0.4 57
2019-11-25 06:00:00 15.2 14 Oeste 31 Noroeste 0 1015.2 0.1 56
2019-11-25 05:00:00 14.6 12 Oeste 27 Oeste 0 1014.7 -0.4 57
2019-11-25 04:00:00 14.8 8 Oeste 31 Oeste 0 1015 -0.5 55
2019-11-25 03:00:00 15.1 17 Oeste 38 Oeste 0 1015.1 -0.7 54
2019-11-25 02:00:00 14.6 12 Oeste 25 Oeste 0 1015.1 -0.8 53
2019-11-25 01:00:00 14.7 10 Oeste 27 Oeste 0 1015.5 -0.4 52
2019-11-25 00:00:00 14.7 9 Oeste 22 Oeste 0 1015.8 0 52
2019-11-24 23:00:00 15 7 Oeste 22 Sudoeste 0 1015.9 0.2 50
2019-11-24 22:00:00 15 10 Oeste 24 Noroeste 0 1015.9 1 49
2019-11-24 21:00:00 15.2 13 Noroeste 25 Noroeste 0 1015.8 1.4 46
2019-11-24 20:00:00 15.4 13 Noroeste 30 Oeste 0 1015.7 1.3 45
2019-11-24 19:00:00 15.5 14 Noroeste 36 Noroeste 0 1014.9 0.6 44
2019-11-24 18:00:00 16.2 17 Noroeste 38 Oeste 0 1014.4 0.4 40
2019-11-24 17:00:00 17 20 Noroeste 45 Oeste 0 1014.4 0.1 36
2019-11-24 16:00:00 17.5 16 Noroeste 41 Noroeste 0 1014.3 -0.7 35
2019-11-24 15:00:00 17.7 14 Noroeste 30 Noroeste 0 1014 -1.6 36
2019-11-24 14:00:00 17 11 Noroeste 26 Oeste 0 1014.3 -1.7 37
2019-11-24 13:00:00 16.8 13 Noroeste 31 Oeste 0 1015 -0.9 39
2019-11-24 12:00:00 16.5 15 Noroeste 32 Noroeste 0 1015.6 0.1 40
2019-11-24 11:00:00 15.5 13 Noroeste 37 Noroeste 0 1016 0.9 44
2019-11-24 10:00:00 14.5 7 Noroeste 18 Oeste 0 1015.9 1.9 48
2019-11-24 09:00:00 13.4 8 Oeste 19 Oeste 0 1015.5 1.9 52
2019-11-24 08:00:00 12.2 8 Noroeste 22 Noroeste 0 1015.1 1.8 54
2019-11-24 07:00:00 12.5 9 Noroeste 22 Oeste 0 1014 0.5 53
2019-11-24 06:00:00 12.8 10 Noroeste 29 Noroeste 0 1013.6 1 53
2019-11-24 05:00:00 13.2 13 Noroeste 25 Norte 0 1013.3 0.7 52
2019-11-24 04:00:00 13.3 13 Noroeste 24 Oeste 0 1013.5 0.8 52
2019-11-24 03:00:00 13.6 8 Oeste 25 Noroeste 0 1012.6 -0.1 49
2019-11-24 02:00:00 13.8 12 Noroeste 32 Oeste 0 1012.6 -0.2 49
2019-11-24 01:00:00 14.1 17 Noroeste 34 Noroeste 0 1012.7 0.6 48
2019-11-24 00:00:00 14.2 9 Noroeste 23 Noroeste 0 1012.7 1.4 46
2019-11-23 23:00:00 14.6 8 Noroeste 15 Noroeste 0 1012.8 1.9 46
2019-11-23 22:00:00 14.8 7 Oeste 21 Noroeste 0 1012.1 2.5 45
2019-11-23 21:00:00 15.3 10 Noroeste 20 Oeste 0 1011.3 3 44
2019-11-23 20:00:00 15.7 8 Oeste 30 Oeste 0 1010.9 3.4 41
2019-11-23 19:00:00 16.1 13 Oeste 31 Oeste 0 1009.6 2.7 39
2019-11-23 18:00:00 16.4 12 Noroeste 30 Oeste 0 1008.3 1.8 38
2019-11-23 17:00:00 17 14 Noroeste 39 Noroeste 0 1007.5 0.8 37
2019-11-23 16:00:00 17.5 19 Noroeste 43 Noroeste 0 1006.9 0 36
2019-11-23 15:00:00 17.2 19 Noroeste 45 Noroeste 0 1006.5 -0.3 36
2019-11-23 14:00:00 17.4 23 Noroeste 46 Oeste 0 1006.7 0.1 36
2019-11-23 13:00:00 17 22 Oeste 42 Oeste 0 1006.9 2.1 39
2019-11-23 12:00:00 16.9 21 Oeste 45 Noroeste 0 1006.8 2.8 40
2019-11-23 11:00:00 16 21 Oeste 42 Oeste 0 1006.6 3.7 43
2019-11-23 10:00:00 16.1 19 Oeste 47 Oeste 0 1004.8 3.1 48
2019-11-23 09:00:00 15.1 12 Oeste 43 Oeste 0 1004 3.9 51
2019-11-23 08:00:00 15 14 Noroeste 44 Noroeste 0 1002.9 2.7 54
2019-11-23 07:00:00 14.9 21 Noroeste 58 Noroeste 0 1001.7 1.6 54
2019-11-23 06:00:00 16.2 17 Noroeste 48 Norte 0 1000.1 0 43
2019-11-23 05:00:00 16.5 10 Oeste 41 Norte 0 1000.2 0.6 43
2019-11-23 04:00:00 16.8 14 Oeste 36 Noroeste 0 1000.1 0.6 41
2019-11-23 03:00:00 17.3 15 Noroeste 44 Noroeste 0 1000.1 0.4 41
2019-11-23 02:00:00 17.4 14 Noroeste 48 Oeste 0 999.6 0.8 45
2019-11-23 01:00:00 17.4 24 Noroeste 55 Noroeste 0 999.5 0.3 44
2019-11-23 00:00:00 17.4 20 Noroeste 54 Noroeste 0 999.7 0.6 45
2019-11-22 23:00:00 17.7 21 Noroeste 61 Noroeste 0 998.8 0.9 44
2019-11-22 22:00:00 17.5 23 Noroeste 46 Noroeste 4 999.2 1.8 52
2019-11-22 21:00:00 16.5 6 Noroeste 15 Nordeste 2.9 999.1 1.3 86
2019-11-22 20:00:00 16.4 4 Este 18 Norte 0.1 997.9 -0.5 84
2019-11-22 19:00:00 16.1 5 Nordeste 23 Sur 0.1 997.4 -1.8 83
2019-11-22 18:00:00 16.1 17 Sur 31 Sur 0 997.8 -2.3 82
2019-11-22 17:00:00 16.5 15 Sudoeste 27 Sudoeste 0 998.4 -3 82
2019-11-22 16:00:00 15.8 15 Sur 35 Sur 0.1 999.2 -3.9 87
2019-11-22 15:00:00 15 12 Sur 34 Sur 0 1000.1 -4.5 90
2019-11-22 14:00:00 14.7 13 Sur 25 Sudeste 0.6 1001.4 -3.3 90
2019-11-22 13:00:00 14.1 11 Este 28 Este 4.4 1003.1 -1.4 90
2019-11-22 12:00:00 14.1 9 Este 24 Nordeste 1.3 1004.6 -0.1 90
2019-11-22 11:00:00 14.3 8 Sudeste 24 Este 0.6 1004.7 -0.1 90
2019-11-22 10:00:00 14.3 10 Este 21 Sur 2 1004.5 -0.1 90
2019-11-22 09:00:00 14.3 8 Este 19 Sudoeste 6.3 1004.7 -0.5 90
2019-11-22 08:00:00 14.3 9 Sudoeste 21 Sudoeste 1.4 1004.8 -0.9 90
2019-11-22 07:00:00 14.4 8 Sudoeste 22 Sudoeste 0 1004.6 -1.5 90
2019-11-22 06:00:00 14.3 2 Norte 16 Nordeste 0 1005.2 -1.3 90
2019-11-22 05:00:00 14.3 9 Este 16 Este 0.7 1005.7 -0.9 89
2019-11-22 04:00:00 14.2 9 Este 17 Este 0.1 1006.1 -1.2 89
2019-11-22 03:00:00 13.8 2 Nordeste 8 Norte 0.2 1006.5 -1.2 89
2019-11-22 02:00:00 13.4 5 Norte 9 Norte 0 1006.6 -1.2 90
2019-11-22 01:00:00 13.8 2 Noroeste 3 Noroeste 0 1007.3 -0.8 90
2019-11-22 00:00:00 14.2 2 Noroeste 14 Este 0 1007.7 -0.5 90
2019-11-21 23:00:00 14.4 3 Nordeste 15 Nordeste 0 1007.8 -0.3 90
2019-11-21 22:00:00 14.2 9 Este 14 Este 0 1008.1 0.2 91
2019-11-21 21:00:00 14 9 Este 15 Nordeste 0 1008.2 0.2 91
2019-11-21 20:00:00 13.7 9 Este 15 Nordeste 0.1 1008.1 0.1 91
2019-11-21 19:00:00 13.5 8 Este 15 Este 2.3 1007.9 0.1 91
2019-11-21 18:00:00 13.5 10 Este 16 Sudeste 1.6 1008 0 91
2019-11-21 17:00:00 13.7 6 Sudeste 15 Este 0.7 1008 -0.7 90
2019-11-21 16:00:00 13.9 8 Sudeste 13 Sudeste 0 1007.8 -1.4 90
2019-11-21 15:00:00 13.9 8 Este 13 Este 0 1008 -2.1 90
2019-11-21 14:00:00 13.2 9 Este 14 Este 0.6 1008.7 -1.8 89
2019-11-21 13:00:00 13.4 8 Este 18 Este 0 1009.2 -1 89
2019-11-21 12:00:00 13.1 4 Este 9 Este 0 1010.1 0.3 89
2019-11-21 11:00:00 13.1 0 Calma 6 Nordeste 0 1010.5 0.9 89
2019-11-21 10:00:00 12.5 0 Calma 6 Nordeste 0.2 1010.2 0.9 89
2019-11-21 09:00:00 12.3 0 Calma 7 Este 1.5 1009.8 0.7 88
2019-11-21 08:00:00 12.1 3 Noroeste 5 Noroeste 0 1009.6 0.2 88
2019-11-21 07:00:00 12 4 Noroeste 6 Sudoeste 0.1 1009.3 -0.6 88
2019-11-21 06:00:00 12.4 0 Calma 10 Noroeste 0.1 1009.1 -0.9 84
2019-11-21 05:00:00 12 7 Noroeste 12 Norte 0 1009.4 -0.6 84
2019-11-21 04:00:00 12 6 Noroeste 10 Norte 0 1009.9 -0.6 84
2019-11-21 03:00:00 12 6 Noroeste 10 Noroeste 0 1010 -0.4 84
2019-11-21 02:00:00 12.1 4 Norte 12 Norte 0 1010 -0.8 84
2019-11-21 01:00:00 12.7 3 Norte 7 Nordeste 0 1010.5 -0.1 84
2019-11-21 00:00:00 12.9 3 Este 8 Este 0 1010.4 0.1 84
2019-11-20 23:00:00 13 6 Este 10 Nordeste 0 1010.8 0.7 84
2019-11-20 22:00:00 13.2 4 Este 12 Este 0 1010.6 0.8 84
2019-11-20 21:00:00 13.1 5 Sudeste 14 Este 0 1010.3 0.9 83
2019-11-20 20:00:00 13 6 Sudeste 11 Sur 0 1010.1 0.5 82
2019-11-20 19:00:00 13 6 Sudeste 10 Este 0 1009.8 0.1 81
2019-11-20 18:00:00 13.1 8 Este 11 Este 0 1009.4 -0.2 81
2019-11-20 17:00:00 13.1 5 Sudeste 10 Sur 0 1009.6 -0.8 80
2019-11-20 16:00:00 12.9 6 Sudeste 15 Este 0 1009.7 -1.5 80
2019-11-20 15:00:00 13.1 8 Este 15 Este 0.1 1009.6 -2.4 79
2019-11-20 14:00:00 12.6 8 Este 17 Este 0.1 1010.4 -1.4 78
2019-11-20 13:00:00 12.2 2 Sur 10 Oeste 0.7 1011.2 -0.7 72
2019-11-20 12:00:00 12.5 5 Oeste 12 Sudoeste 0 1012 0.2 64
2019-11-20 11:00:00 14.5 4 Sur 7 Sur 0 1011.8 0.1 57
2019-11-20 10:00:00 13.8 4 Oeste 9 Noroeste 0 1011.9 0.3 56
2019-11-20 09:00:00 11.5 7 Noroeste 14 Norte 0 1011.8 0.5 61
2019-11-20 08:00:00 10.6 4 Noroeste 14 Noroeste 0 1011.7 0.2 61
2019-11-20 07:00:00 10.7 10 Noroeste 15 Noroeste 0 1011.6 -0.4 59
2019-11-20 06:00:00 11.6 6 Noroeste 10 Norte 0 1011.3 -1.1 57
2019-11-20 05:00:00 12.2 4 Norte 9 Norte 0 1011.5 -1.2 56
2019-11-20 04:00:00 12.6 0 Calma 7 Noroeste 0 1012 -0.8 56
2019-11-20 03:00:00 12.8 0 Calma 7 Oeste 0 1012.4 -0.7 59
2019-11-20 02:00:00 13.3 5 Oeste 13 Sudoeste 0 1012.7 -0.9 56
2019-11-20 01:00:00 13.8 4 Sudoeste 12 Norte 0 1012.8 -1 53
2019-11-20 00:00:00 13.9 4 Noroeste 11 Noroeste 0 1013.1 -0.7 53
2019-11-19 23:00:00 13.9 6 Noroeste 10 Noroeste 0 1013.6 -0.2 53
2019-11-19 22:00:00 14 2 Noroeste 10 Norte 0 1013.8 0.1 51
2019-11-19 21:00:00 13.9 3 Noroeste 9 Noroeste 0 1013.8 0.4 49
2019-11-19 20:00:00 14.1 3 Norte 8 Nordeste 0 1013.8 0.5 50
2019-11-19 19:00:00 14.2 6 Este 18 Este 0 1013.7 0.2 61
2019-11-19 18:00:00 14.2 11 Este 18 Nordeste 0 1013.4 -0.5 63
2019-11-19 17:00:00 14.8 8 Este 17 Este 0 1013.3 -1.1 57
2019-11-19 16:00:00 15 8 Sudeste 20 Sudeste 0 1013.5 -1.4 53
2019-11-19 15:00:00 15.4 11 Sur 24 Sur 0 1013.9 -2.3 63
2019-11-19 14:00:00 15.6 14 Sur 21 Sudoeste 0 1014.4 -2.4 53
2019-11-19 13:00:00 19.2 6 Sudoeste 15 Sudoeste 0 1014.9 -2 36
2019-11-19 12:00:00 16.3 9 Sudoeste 15 Sudoeste 0 1016.2 -0.6 44
2019-11-19 11:00:00 15.4 8 Oeste 18 Oeste 0 1016.8 0.3 49
2019-11-19 10:00:00 13.6 4 Noroeste 10 Oeste 0 1016.9 0.8 51
2019-11-19 09:00:00 11.7 5 Noroeste 16 Noroeste 0 1016.8 1.1 52
2019-11-19 08:00:00 11 9 Noroeste 14 Noroeste 0 1016.5 0.9 54
2019-11-19 07:00:00 11.4 6 Noroeste 12 Noroeste 0 1016.1 0.6 61
2019-11-19 06:00:00 11 8 Noroeste 16 Noroeste 0 1015.7 0.4 55
2019-11-19 05:00:00 11.8 7 Noroeste 19 Oeste 0 1015.6 0.1 61
2019-11-19 04:00:00 11.8 13 Oeste 21 Oeste 0 1015.5 -0.3 60
2019-11-19 03:00:00 12.1 8 Oeste 19 Oeste 0 1015.3 -0.5 57
2019-11-19 02:00:00 11.9 9 Oeste 24 Sudoeste 0 1015.5 -0.2 56
2019-11-19 01:00:00 12.6 9 Oeste 19 Oeste 0 1015.8 0.9 53
2019-11-19 00:00:00 13.3 8 Oeste 20 Noroeste 0 1015.8 1.5 49
2019-11-18 23:00:00 13.2 6 Noroeste 23 Oeste 0 1015.7 1.7 53
2019-11-18 22:00:00 13.6 5 Oeste 27 Oeste 0 1014.9 1.7 51
2019-11-18 21:00:00 14.2 11 Sudoeste 31 Sudoeste 0 1014.3 1.8 49
2019-11-18 20:00:00 14.9 9 Oeste 21 Noroeste 0 1014 1.7 47
2019-11-18 19:00:00 15 7 Sudoeste 38 Noroeste 0 1013.2 1.1 48
2019-11-18 18:00:00 15.5 17 Noroeste 36 Noroeste 0 1012.5 0.6 45
2019-11-18 17:00:00 15.9 18 Noroeste 35 Noroeste 0 1012.3 0.4 44
2019-11-18 16:00:00 16.3 18 Noroeste 41 Norte 0 1012.1 0.1 44
2019-11-18 15:00:00 16.7 15 Oeste 38 Oeste 0 1011.9 -0.1 44
2019-11-18 14:00:00 16.4 13 Oeste 33 Oeste 0 1011.9 -0.4 46
2019-11-18 13:00:00 16 12 Noroeste 40 Noroeste 0 1012 0.4 48
2019-11-18 12:00:00 14.2 21 Noroeste 40 Noroeste 0 1012 1.6 53
2019-11-18 11:00:00 13.3 18 Noroeste 41 Noroeste 0 1012.3 3.2 56
2019-11-18 10:00:00 13.4 12 Noroeste 33 Oeste 0 1011.6 2.8 58
2019-11-18 09:00:00 13.1 13 Oeste 56 Oeste 0 1010.4 2.6 61
2019-11-18 08:00:00 13.3 21 Noroeste 49 Oeste 0 1009.1 1.5 63
2019-11-18 07:00:00 14.8 15 Noroeste 40 Noroeste 0 1008.8 0.8 64
2019-11-18 06:00:00 16 17 Noroeste 35 Noroeste 0 1007.8 -1 65
2019-11-18 05:00:00 14.3 6 Noroeste 12 Este 0 1007.6 -2.4 76
2019-11-18 04:00:00 13.9 3 Norte 9 Sudoeste 0 1008 -2.7 76
2019-11-18 03:00:00 13.9 2 Sudoeste 9 Norte 0 1008.8 -2.7 74
2019-11-18 02:00:00 13.9 5 Sudoeste 10 Oeste 0 1010 -2.3 72
2019-11-18 01:00:00 14.1 3 Nordeste 8 Noroeste 0 1010.7 -2.1 70
2019-11-18 00:00:00 14.2 6 Noroeste 9 Noroeste 0 1011.5 -1.9 69
2019-11-17 23:00:00 14.1 2 Sudoeste 10 Norte 0 1012.3 -1.6 70
2019-11-17 22:00:00 14 0 Calma 17 Este 0 1012.8 -1.2 79
2019-11-17 21:00:00 14.3 10 Este 15 Este 0 1013.4 -0.8 76
2019-11-17 20:00:00 14.6 0 Calma 6 Este 0 1013.9 -0.6 72
2019-11-17 19:00:00 15.2 0 Calma 15 Sudoeste 0 1014 -0.5 68
2019-11-17 18:00:00 15.5 3 Este 4 Este 0 1014.2 -0.9 59
2019-11-17 17:00:00 16 2 Sur 8 Sur 0 1014.5 -1.1 56
2019-11-17 16:00:00 15.8 5 Este 13 Sur 0 1014.5 -2.1 52
2019-11-17 15:00:00 15.8 8 Sur 17 Sudoeste 0 1015.1 -2.3 51
2019-11-17 14:00:00 16.1 6 Oeste 18 Noroeste 0 1015.6 -2 50
2019-11-17 13:00:00 16.1 9 Oeste 19 Sudoeste 0 1016.6 -1.2 48
2019-11-17 12:00:00 15.4 5 Noroeste 20 Noroeste 0 1017.4 -0.2 46
2019-11-17 11:00:00 15.3 4 Sudoeste 18 Sudoeste 0 1017.6 0.4 43
2019-11-17 10:00:00 13.7 8 Oeste 16 Sudoeste 0 1017.8 0.7 45
2019-11-17 09:00:00 12.2 8 Sudoeste 18 Sudoeste 0 1017.6 0.8 49
2019-11-17 08:00:00 12.3 4 Noroeste 24 Noroeste 0 1017.2 0.4 48
2019-11-17 07:00:00 12.4 10 Noroeste 24 Norte 0 1017.1 0 48
2019-11-17 06:00:00 11.7 8 Oeste 18 Noroeste 0 1016.8 -0.2 48
2019-11-17 05:00:00 11.3 3 Norte 26 Noroeste 0 1016.8 -0.3 48
2019-11-17 04:00:00 12 12 Noroeste 26 Noroeste 0 1017.1 -0.1 47
2019-11-17 03:00:00 11.8 7 Noroeste 22 Noroeste 0 1017 -0.2 47
2019-11-17 02:00:00 12 10 Noroeste 22 Noroeste 0 1017.1 -0.1 47
2019-11-17 01:00:00 12.5 10 Noroeste 25 Noroeste 0 1017.2 0.3 45
2019-11-17 00:00:00 12.6 11 Noroeste 26 Oeste 0 1017.2 0.7 45
2019-11-16 23:00:00 12.3 8 Noroeste 19 Noroeste 0 1017.2 1.2 44
2019-11-16 22:00:00 12.5 7 Noroeste 17 Noroeste 0 1016.9 1.4 43
2019-11-16 21:00:00 12.6 12 Oeste 26 Noroeste 0 1016.5 1.7 41
2019-11-16 20:00:00 13.1 9 Noroeste 30 Noroeste 0 1016 1.6 42
2019-11-16 19:00:00 13.8 14 Noroeste 28 Oeste 0 1015.5 2.1 38
2019-11-16 18:00:00 14.6 15 Noroeste 34 Noroeste 0 1014.8 1.5 36
2019-11-16 17:00:00 15.9 13 Noroeste 31 Noroeste 0 1014.4 1.1 32
2019-11-16 16:00:00 16.2 15 Noroeste 31 Norte 0 1013.4 0 32
2019-11-16 15:00:00 15.7 18 Noroeste 41 Oeste 0 1013.3 -0.5 36
2019-11-16 14:00:00 15.5 14 Noroeste 34 Oeste 0 1013.3 -0.4 36
2019-11-16 13:00:00 14.7 16 Oeste 32 Oeste 0 1013.4 0.1 37
2019-11-16 12:00:00 13.8 15 Noroeste 32 Oeste 0 1013.8 1.2 41
2019-11-16 11:00:00 12.8 13 Oeste 31 Oeste 0 1013.7 2.1 46
2019-11-16 10:00:00 11.4 11 Oeste 26 Noroeste 0 1013.3 2.9 49
2019-11-16 09:00:00 10 8 Noroeste 22 Noroeste 0 1012.6 2.8 52
2019-11-16 08:00:00 9.3 9 Noroeste 21 Noroeste 0 1011.6 2.2 53
2019-11-16 07:00:00 9.5 9 Oeste 18 Oeste 0 1010.4 1.4 54
2019-11-16 06:00:00 9.7 12 Oeste 21 Oeste 0 1009.8 1.3 53
2019-11-16 05:00:00 9.8 12 Sudoeste 20 Sudoeste 0 1009.4 1 53
2019-11-16 04:00:00 10.7 6 Oeste 18 Oeste 0 1009 0.7 51
2019-11-16 03:00:00 10.9 12 Oeste 20 Noroeste 0 1008.5 0.3 51
2019-11-16 02:00:00 11.1 8 Noroeste 18 Noroeste 0 1008.4 0.4 51
2019-11-16 01:00:00 10.5 3 Norte 10 Oeste 0 1008.3 0.9 53
2019-11-16 00:00:00 10.9 5 Norte 10 Nordeste 0 1008.2 1 53
2019-11-15 23:00:00 11.2 5 Noroeste 24 Noroeste 0 1008 1 52
2019-11-15 22:00:00 11.1 8 Noroeste 21 Noroeste 0 1007.4 0.7 51
2019-11-15 21:00:00 11.7 10 Noroeste 21 Noroeste 0 1007.2 0.9 50
2019-11-15 20:00:00 12.1 11 Oeste 26 Oeste 0 1007 1.2 50
2019-11-15 19:00:00 12.1 8 Noroeste 27 Noroeste 0 1006.7 1.5 52
2019-11-15 18:00:00 10.7 7 Norte 36 Noroeste 0 1006.3 1.2 56
2019-11-15 17:00:00 12.7 20 Noroeste 41 Noroeste 0 1005.8 0.4 42
2019-11-15 16:00:00 13.8 14 Noroeste 38 Noroeste 0 1005.2 -0.8 39
2019-11-15 15:00:00 14.1 14 Noroeste 38 Noroeste 0 1005.1 -1.7 40
2019-11-15 14:00:00 13.6 20 Noroeste 42 Noroeste 0 1005.4 -1.8 42
2019-11-15 13:00:00 13.2 17 Noroeste 43 Noroeste 0 1006 -0.9 45
2019-11-15 12:00:00 12.4 24 Noroeste 45 Noroeste 0 1006.8 0.4 49
2019-11-15 11:00:00 12.7 13 Noroeste 30 Oeste 0 1007.2 1.4 51
2019-11-15 10:00:00 12.4 6 Oeste 44 Noroeste 0 1006.9 1.4 53
2019-11-15 09:00:00 10.9 14 Noroeste 52 Norte 0 1006.4 0.8 56
2019-11-15 08:00:00 10.6 17 Noroeste 42 Norte 0 1005.8 0 56
2019-11-15 07:00:00 11.2 17 Noroeste 36 Noroeste 0 1005.5 -0.9 53
2019-11-15 06:00:00 11.3 14 Noroeste 32 Noroeste 0 1005.6 -1.1 53
2019-11-15 05:00:00 11.7 15 Noroeste 34 Noroeste 0 1005.8 -0.8 54
2019-11-15 04:00:00 12.4 15 Noroeste 33 Noroeste 0 1006.4 -0.2 53
2019-11-15 03:00:00 12.6 14 Noroeste 34 Noroeste 0 1006.7 -0.3 54
2019-11-15 02:00:00 13 16 Oeste 35 Noroeste 0 1006.6 0.2 54
2019-11-15 01:00:00 13.1 15 Noroeste 37 Noroeste 0 1006.6 0.2 54
2019-11-15 00:00:00 13.2 21 Noroeste 39 Noroeste 0 1007 0.9 55
2019-11-14 23:00:00 13.4 14 Oeste 37 Noroeste 0 1006.4 0.8 55
2019-11-14 22:00:00 13.7 21 Oeste 48 Oeste 0 1006.4 -0.2 53
2019-11-14 21:00:00 14 23 Noroeste 48 Oeste 0 1006.1 0.3 54
2019-11-14 20:00:00 13.9 19 Noroeste 42 Oeste 0 1005.6 0.6 53
2019-11-14 19:00:00 14.4 17 Noroeste 33 Oeste 0 1006.6 1.8 52
2019-11-14 18:00:00 14.5 15 Noroeste 34 Noroeste 0 1005.8 0.1 54
2019-11-14 17:00:00 14.6 15 Noroeste 37 Noroeste 0 1005 -0.7 54
2019-11-14 16:00:00 14.7 14 Noroeste 51 Noroeste 0 1004.8 -1.2 57
2019-11-14 15:00:00 13.9 32 Noroeste 60 Noroeste 0 1005.7 -1.6 60
2019-11-14 14:00:00 14.6 15 Noroeste 41 Norte 0.4 1005.7 -2.4 69
2019-11-14 13:00:00 17.3 10 Noroeste 32 Noroeste 0 1006 -2.3 52
2019-11-14 12:00:00 17.3 13 Noroeste 30 Noroeste 0 1007.3 -1.3 51
2019-11-14 11:00:00 17.3 13 Oeste 36 Oeste 0 1008.1 -0.1 52
2019-11-14 10:00:00 16.2 17 Oeste 36 Sudoeste 0 1008.3 0.1 55
2019-11-14 09:00:00 15 22 Noroeste 53 Noroeste 0 1008.6 0.3 56
2019-11-14 08:00:00 14.8 23 Noroeste 48 Norte 0 1008.2 -0.1 54
2019-11-14 07:00:00 14.5 7 Oeste 22 Sudoeste 0 1008.2 -1.1 64
2019-11-14 06:00:00 15.2 8 Sudoeste 15 Noroeste 0 1008.3 -2 64
2019-11-14 05:00:00 16.2 7 Noroeste 17 Noroeste 0 1008.3 -2.7 62
2019-11-14 04:00:00 16 2 Noroeste 10 Noroeste 0 1009.3 -2.1 63
2019-11-14 03:00:00 15.7 0 Calma 10 Sudoeste 0 1010.3 -1.5 63
2019-11-14 02:00:00 16.5 0 Calma 8 Sudoeste 0 1011 -1.6 61
2019-11-14 01:00:00 17.5 0 Calma 15 Norte 0 1011.4 -0.6 57
2019-11-14 00:00:00 18.5 6 Noroeste 29 Noroeste 0 1011.8 0 53
2019-11-13 23:00:00 19 10 Norte 25 Noroeste 0 1012.6 0.8 53
2019-11-13 22:00:00 18.6 10 Sudoeste 15 Oeste 0 1012 0.4 55
2019-11-13 21:00:00 19 10 Oeste 22 Oeste 0 1011.8 0.9 56
2019-11-13 20:00:00 19.1 8 Noroeste 31 Noroeste 0 1011.8 1.3 57
2019-11-13 19:00:00 19.5 10 Noroeste 32 Norte 0 1011.6 0.9 55
2019-11-13 18:00:00 20 9 Norte 33 Noroeste 0 1010.9 0 53
2019-11-13 17:00:00 20.8 15 Noroeste 36 Noroeste 0 1010.5 -0.5 52
2019-11-13 16:00:00 21.3 18 Noroeste 48 Noroeste 0 1010.7 -1.3 51
2019-11-13 15:00:00 20.8 13 Noroeste 39 Noroeste 0 1010.9 -1.5 54
2019-11-13 14:00:00 21.1 15 Noroeste 41 Noroeste 0 1011 -1.8 52
2019-11-13 13:00:00 20.3 17 Oeste 38 Oeste 0 1012 -0.2 52
2019-11-13 12:00:00 19.7 17 Noroeste 38 Oeste 0 1012.4 0.7 54
2019-11-13 11:00:00 18.1 17 Oeste 36 Noroeste 0 1012.8 1.5 57
2019-11-13 10:00:00 17.7 10 Oeste 23 Sudoeste 0 1012.2 1 58
2019-11-13 09:00:00 17.3 8 Noroeste 25 Oeste 0 1011.7 0.7 60
2019-11-13 08:00:00 16.6 4 Oeste 32 Noroeste 0 1011.3 0 60
2019-11-13 07:00:00 16.6 5 Noroeste 18 Noroeste 0 1011.2 -0.4 60
2019-11-13 06:00:00 16.8 5 Oeste 30 Oeste 0 1011 -0.9 55
2019-11-13 05:00:00 16.6 12 Oeste 34 Oeste 0 1011.3 -1.1 55
2019-11-13 04:00:00 16.3 11 Noroeste 23 Noroeste 0 1011.6 -0.5 52
2019-11-13 03:00:00 16.2 10 Noroeste 26 Noroeste 0 1011.9 -0.5 50
2019-11-13 02:00:00 16.2 12 Oeste 31 Oeste 0 1012.4 0.1 47
2019-11-13 01:00:00 16.3 11 Oeste 23 Sudoeste 0 1012.1 0.1 45
2019-11-13 00:00:00 16.5 13 Sudoeste 24 Oeste 0 1012.4 0.5 43
2019-11-12 23:00:00 17 12 Sudoeste 24 Oeste 0 1012.3 0.7 41
2019-11-12 22:00:00 17.2 7 Oeste 31 Noroeste 0 1012 0.5 43
2019-11-12 21:00:00 17.4 15 Oeste 35 Noroeste 0 1011.9 0.7 44
2019-11-12 20:00:00 17.6 15 Noroeste 32 Oeste 0 1011.6 0.7 45
2019-11-12 19:00:00 17.4 11 Noroeste 38 Noroeste 0 1011.5 0.7 47
2019-11-12 18:00:00 17.7 22 Noroeste 45 Noroeste 0 1011.2 0.2 44
2019-11-12 17:00:00 18.8 15 Noroeste 38 Noroeste 0 1010.9 -0.4 43
2019-11-12 16:00:00 18.8 15 Noroeste 38 Noroeste 0 1010.8 -1.2 44
2019-11-12 15:00:00 19 18 Noroeste 47 Noroeste 0 1011 -1.6 44
2019-11-12 14:00:00 18.6 22 Noroeste 41 Noroeste 0 1011.3 -1.6 45
2019-11-12 13:00:00 19.4 15 Noroeste 38 Noroeste 0 1012 -0.8 46
2019-11-12 12:00:00 18.3 18 Noroeste 41 Noroeste 0 1012.6 0 50
2019-11-12 11:00:00 17.9 14 Noroeste 33 Oeste 0 1012.9 0.5 52
2019-11-12 10:00:00 17.6 11 Noroeste 26 Noroeste 0 1012.8 1.1 54
2019-11-12 09:00:00 16.6 8 Noroeste 26 Noroeste 0 1012.6 0.7 57
2019-11-12 08:00:00 15.5 16 Noroeste 30 Noroeste 0 1012.4 0.3 61
2019-11-12 07:00:00 16.4 10 Noroeste 35 Noroeste 0 1011.7 -0.5 58
2019-11-12 06:00:00 16.4 15 Noroeste 31 Norte 0 1011.9 -0.6 60
2019-11-12 05:00:00 16.3 13 Noroeste 25 Noroeste 0 1012.1 -0.7 60
2019-11-12 04:00:00 16.6 6 Noroeste 18 Noroeste 0 1012.2 -0.9 60
2019-11-12 03:00:00 16.7 6 Noroeste 19 Oeste 0 1012.5 -1.1 62
2019-11-12 02:00:00 17 9 Noroeste 19 Noroeste 0 1012.8 -1.2 64
2019-11-12 01:00:00 16.3 2 Este 13 Noroeste 0 1013.1 -0.8 69
2019-11-12 00:00:00 16.6 6 Oeste 17 Noroeste 0 1013.6 -0.3 69
2019-11-11 23:00:00 16.8 6 Noroeste 14 Oeste 0 1014 0.6 68
2019-11-11 22:00:00 16.8 4 Oeste 23 Noroeste 0 1013.9 0.1 67
2019-11-11 21:00:00 16.8 11 Noroeste 26 Noroeste 0 1013.9 0.8 68
2019-11-11 20:00:00 15.7 9 Norte 28 Oeste 0 1013.4 0.6 75
2019-11-11 19:00:00 16.4 15 Noroeste 37 Noroeste 0 1013.8 0.8 68
2019-11-11 18:00:00 16.7 15 Noroeste 40 Noroeste 0 1013.1 0 64
2019-11-11 17:00:00 16.7 19 Noroeste 47 Oeste 0 1012.8 -1 61
2019-11-11 16:00:00 17.3 20 Noroeste 41 Noroeste 0 1013 -1.6 56
2019-11-11 15:00:00 16.6 21 Noroeste 38 Noroeste 0 1013.1 -2.4 56
2019-11-11 14:00:00 17.4 12 Noroeste 31 Noroeste 0 1013.8 -2.7 52
2019-11-11 13:00:00 17 12 Noroeste 31 Noroeste 0 1014.6 -2.4 51
2019-11-11 12:00:00 16.7 10 Noroeste 27 Noroeste 0 1015.5 -1.7 51
2019-11-11 11:00:00 15.1 17 Noroeste 29 Noroeste 0 1016.5 -0.4 56
2019-11-11 10:00:00 14.6 12 Noroeste 25 Oeste 0 1017 0.3 59
2019-11-11 09:00:00 14 10 Noroeste 23 Noroeste 0 1017.2 0.4 60
2019-11-11 08:00:00 13.9 9 Noroeste 18 Noroeste 0 1016.9 0.6 59
2019-11-11 07:00:00 14.1 9 Noroeste 20 Oeste 0 1016.7 0.2 58
2019-11-11 06:00:00 14.3 10 Oeste 24 Oeste 0 1016.8 -0.2 57
2019-11-11 05:00:00 14.4 13 Oeste 25 Oeste 0 1016.3 -1.1 55
2019-11-11 04:00:00 14.6 8 Oeste 24 Oeste 0 1016.5 -0.7 52
2019-11-11 03:00:00 14.8 10 Noroeste 27 Noroeste 0 1017 -0.3 51
2019-11-11 02:00:00 14.9 11 Noroeste 31 Noroeste 0 1017.4 0.4 50
2019-11-11 01:00:00 14.9 10 Noroeste 30 Noroeste 0 1017.2 0.3 50
2019-11-11 00:00:00 15 12 Noroeste 28 Noroeste 0 1017.3 0.4 49
2019-11-10 23:00:00 15.2 13 Noroeste 39 Norte 0 1017 0.4 47
2019-11-10 22:00:00 15 13 Noroeste 27 Noroeste 0 1016.9 0.9 46
2019-11-10 21:00:00 15.3 15 Noroeste 36 Noroeste 0 1016.9 1.5 43
2019-11-10 20:00:00 15.3 13 Noroeste 39 Noroeste 0 1016.6 1.6 42
2019-11-10 19:00:00 16.3 18 Noroeste 44 Noroeste 0 1016 1.6 37
2019-11-10 18:00:00 17.2 17 Noroeste 52 Noroeste 0 1015.4 0.9 34
2019-11-10 17:00:00 18.2 10 Noroeste 45 Noroeste 0 1015 -0.2 35
2019-11-10 16:00:00 18.1 21 Noroeste 50 Noroeste 0 1014.4 -0.8 34
2019-11-10 15:00:00 18.2 15 Noroeste 40 Noroeste 0 1014.5 -1 37
2019-11-10 14:00:00 17.5 17 Noroeste 41 Noroeste 0 1015.2 -0.9 40
2019-11-10 13:00:00 16.8 19 Noroeste 43 Noroeste 0 1015.2 -0.5 41
2019-11-10 12:00:00 16.8 17 Noroeste 40 Oeste 0 1015.5 0.7 43
2019-11-10 11:00:00 15.9 17 Noroeste 49 Noroeste 0 1016.1 2.1 45
2019-11-10 10:00:00 16 11 Noroeste 37 Oeste 0 1015.7 2 48
2019-11-10 09:00:00 14.8 17 Oeste 39 Oeste 0 1014.8 1.1 53
2019-11-10 08:00:00 14.9 19 Noroeste 40 Noroeste 0 1014 -0.3 56
2019-11-10 07:00:00 15.5 18 Noroeste 39 Noroeste 0 1013.7 -1.3 57
2019-11-10 06:00:00 16.3 18 Noroeste 42 Noroeste 0 1013.7 -1.7 58
2019-11-10 05:00:00 16.8 13 Noroeste 39 Noroeste 0 1014.3 -1.7 59
2019-11-10 04:00:00 16.5 4 Noroeste 21 Noroeste 0 1015 -1.6 65
2019-11-10 03:00:00 16.8 4 Noroeste 16 Noroeste 0 1015.4 -1.8 62
2019-11-10 02:00:00 16.6 4 Noroeste 27 Noroeste 0 1016 -1.4 60
2019-11-10 01:00:00 16.4 14 Noroeste 33 Noroeste 0 1016.6 -0.9 54
2019-11-10 00:00:00 16.6 9 Noroeste 32 Oeste 0 1017.2 -0.7 45